createdAt,value
2023-04-16T00:02:14.551Z,89.95
2023-04-16T00:04:41.869Z,90.66
2023-04-16T00:07:08.633Z,90.76
2023-04-16T00:09:35.187Z,90.87
2023-04-16T00:12:01.946Z,91.00
2023-04-16T00:14:29.576Z,92.20
2023-04-16T00:16:56.359Z,90.87
2023-04-16T00:19:22.939Z,89.87
2023-04-16T00:21:49.484Z,89.95
2023-04-16T00:24:16.142Z,91.49
2023-04-16T00:26:44.555Z,92.15
2023-04-16T00:29:11.421Z,91.38
2023-04-16T00:31:38.295Z,90.67
2023-04-16T00:34:04.935Z,91.86
2023-04-16T00:36:31.920Z,91.94
2023-04-16T00:38:58.686Z,92.51
2023-04-16T00:41:26.310Z,91.83
2023-04-16T00:43:53.327Z,91.68
2023-04-16T00:46:22.472Z,91.76
2023-04-16T00:48:50.313Z,91.00
2023-04-16T00:51:20.866Z,92.13
2023-04-16T00:53:47.986Z,92.14
2023-04-16T00:56:14.686Z,92.91
2023-04-16T00:58:41.430Z,92.19
2023-04-16T01:01:08.333Z,91.59
2023-04-16T01:03:39.733Z,92.77
2023-04-16T01:06:07.722Z,92.93
2023-04-16T01:08:34.684Z,93.09
2023-04-16T01:11:01.555Z,92.94
2023-04-16T01:13:28.293Z,93.11
2023-04-16T01:15:54.907Z,93.37
2023-04-16T01:18:22.918Z,93.61
2023-04-16T01:20:51.591Z,92.76
2023-04-16T01:23:18.858Z,92.95
2023-04-16T01:25:46.608Z,92.86
2023-04-16T01:28:13.596Z,93.14
2023-04-16T01:30:40.286Z,93.46
2023-04-16T01:33:08.229Z,92.91
2023-04-16T01:35:34.818Z,93.29
2023-04-16T01:38:01.597Z,93.39
2023-04-16T01:40:28.731Z,93.53
2023-04-16T01:42:55.504Z,92.92
2023-04-16T01:45:22.209Z,92.93
2023-04-16T01:47:51.000Z,93.34
2023-04-16T01:50:18.722Z,93.02
2023-04-16T01:52:45.941Z,92.92
2023-04-16T01:55:12.916Z,93.28
2023-04-16T01:57:42.410Z,93.39
2023-04-16T02:00:09.414Z,93.03
2023-04-16T02:02:36.541Z,93.38
2023-04-16T02:05:03.517Z,92.86
2023-04-16T02:07:31.739Z,93.76
2023-04-16T02:09:58.449Z,93.46
2023-04-16T02:12:26.245Z,93.13
2023-04-16T02:14:52.897Z,93.09
2023-04-16T02:17:19.479Z,93.05
2023-04-16T02:19:46.472Z,93.66
2023-04-16T02:22:13.198Z,92.19
2023-04-16T02:24:39.771Z,92.87
2023-04-16T02:27:06.504Z,92.59
2023-04-16T02:29:33.110Z,92.53
2023-04-16T02:31:59.944Z,92.96
2023-04-16T02:34:26.586Z,92.96
2023-04-16T02:36:54.320Z,92.72
2023-04-16T02:39:21.045Z,92.70
2023-04-16T02:41:47.611Z,92.44
2023-04-16T02:44:14.169Z,92.76
2023-04-16T02:46:41.413Z,92.28
2023-04-16T02:49:08.261Z,91.95
2023-04-16T02:51:34.996Z,92.36
2023-04-16T02:54:10.402Z,91.91
2023-04-16T02:56:37.801Z,92.35
2023-04-16T02:59:04.424Z,92.76
2023-04-16T03:01:31.082Z,93.30
2023-04-16T03:03:57.851Z,92.60
2023-04-16T03:06:24.392Z,92.75
2023-04-16T03:08:51.231Z,93.01
2023-04-16T03:11:17.888Z,92.44
2023-04-16T03:13:44.433Z,92.66
2023-04-16T03:16:11.286Z,92.66
2023-04-16T03:18:37.978Z,93.34
2023-04-16T03:21:05.083Z,92.73
2023-04-16T03:23:31.733Z,93.05
2023-04-16T03:25:58.259Z,92.54
2023-04-16T03:28:24.834Z,92.41
2023-04-16T03:30:52.766Z,92.48
2023-04-16T03:33:20.776Z,92.96
2023-04-16T03:38:41.500Z,93.24
2023-04-16T03:41:10.139Z,92.65
2023-04-16T03:43:36.915Z,92.84
2023-04-16T03:46:03.662Z,93.32
2023-04-16T03:48:30.550Z,93.39
2023-04-16T03:50:57.257Z,93.09
2023-04-16T03:53:23.915Z,93.00
2023-04-16T03:55:51.692Z,93.38
2023-04-16T03:58:18.706Z,93.27
2023-04-16T04:00:45.453Z,93.46
2023-04-16T04:03:12.262Z,93.45
2023-04-16T04:05:43.236Z,93.29
2023-04-16T04:08:09.971Z,93.05
2023-04-16T04:10:37.936Z,93.64
2023-04-16T04:13:06.414Z,93.12
2023-04-16T04:15:33.011Z,92.67
2023-04-16T04:17:59.949Z,93.07
2023-04-16T04:20:26.705Z,93.01
2023-04-16T04:22:53.297Z,93.04
2023-04-16T04:25:19.911Z,93.35
2023-04-16T04:27:46.592Z,93.20
2023-04-16T04:30:13.169Z,93.19
2023-04-16T04:32:39.883Z,92.93
2023-04-16T04:35:07.024Z,92.27
2023-04-16T04:37:33.490Z,92.52
2023-04-16T04:40:00.351Z,93.00
2023-04-16T04:42:27.317Z,93.95
2023-04-16T04:44:53.946Z,93.43
2023-04-16T04:47:20.523Z,93.85
2023-04-16T04:49:47.136Z,93.24
2023-04-16T04:52:14.209Z,93.06
2023-04-16T04:54:41.886Z,93.36
2023-04-16T04:57:08.818Z,93.28
2023-04-16T04:59:35.410Z,92.78
2023-04-16T05:02:03.632Z,93.18
2023-04-16T05:04:31.386Z,93.20
2023-04-16T05:06:57.977Z,94.04
2023-04-16T05:09:24.626Z,93.27
2023-04-16T05:11:51.362Z,92.69
2023-04-16T05:14:17.870Z,92.95
2023-04-16T05:16:44.420Z,93.26
2023-04-16T05:19:11.370Z,93.29
2023-04-16T05:21:38.164Z,93.34
2023-04-16T05:24:04.808Z,93.40
2023-04-16T05:26:31.359Z,93.21
2023-04-16T05:28:58.385Z,92.76
2023-04-16T05:31:25.223Z,93.25
2023-04-16T05:33:51.871Z,93.37
2023-04-16T05:36:18.448Z,93.15
2023-04-16T05:38:45.171Z,93.36
2023-04-16T05:44:06.321Z,93.45
2023-04-16T05:46:32.898Z,93.27
2023-04-16T05:48:59.568Z,93.23
2023-04-16T05:54:22.241Z,93.61
2023-04-16T05:56:48.996Z,92.78
2023-04-16T05:59:15.743Z,93.20
2023-04-16T06:04:37.371Z,93.67
2023-04-16T06:07:05.620Z,93.22
2023-04-16T06:09:34.767Z,93.30
2023-04-16T06:12:01.485Z,93.63
2023-04-16T06:14:28.163Z,93.55
2023-04-16T06:16:54.757Z,93.41
2023-04-16T06:19:21.481Z,93.43
2023-04-16T06:21:47.966Z,93.40
2023-04-16T06:24:14.608Z,93.18
2023-04-16T06:26:41.181Z,93.17
2023-04-16T06:29:08.013Z,93.10
2023-04-16T06:31:34.982Z,93.53
2023-04-16T06:34:02.159Z,94.01
2023-04-16T06:36:29.196Z,94.18
2023-04-16T06:38:56.083Z,94.55
2023-04-16T06:41:25.771Z,94.04
2023-04-16T06:43:52.539Z,94.59
2023-04-16T06:46:19.223Z,94.33
2023-04-16T06:48:46.294Z,94.13
2023-04-16T06:51:13.602Z,94.14
2023-04-16T06:53:40.481Z,93.25
2023-04-16T06:56:07.394Z,93.72
2023-04-16T06:58:34.123Z,94.55
2023-04-16T07:01:02.667Z,93.76
2023-04-16T07:03:29.467Z,94.00
2023-04-16T07:05:57.271Z,94.08
2023-04-16T07:08:24.769Z,93.96
2023-04-16T07:10:52.801Z,93.43
2023-04-16T07:13:19.604Z,92.44
2023-04-16T07:15:46.385Z,92.49
2023-04-16T07:18:13.010Z,93.79
2023-04-16T07:20:39.795Z,93.71
2023-04-16T07:23:06.452Z,92.58
2023-04-16T07:25:33.145Z,91.71
2023-04-16T07:27:59.729Z,91.99
2023-04-16T07:30:32.901Z,92.73
2023-04-16T07:33:00.327Z,93.28
2023-04-16T07:35:27.135Z,90.38
2023-04-16T07:37:53.782Z,91.43
2023-04-16T07:40:20.402Z,90.76
2023-04-16T07:42:47.148Z,91.80
2023-04-16T07:45:13.783Z,90.83
2023-04-16T07:47:40.653Z,91.55
2023-04-16T07:50:08.461Z,91.22
2023-04-16T07:52:35.317Z,90.91
2023-04-16T07:55:02.217Z,90.67
2023-04-16T07:57:28.854Z,90.56
2023-04-16T07:59:55.853Z,89.93
2023-04-16T08:02:22.845Z,90.21
2023-04-16T08:04:49.611Z,90.36
2023-04-16T08:07:16.522Z,90.25
2023-04-16T08:09:51.005Z,89.22
2023-04-16T08:12:23.040Z,88.68
2023-04-16T08:14:49.701Z,88.90
2023-04-16T08:17:16.740Z,89.34
2023-04-16T08:19:47.339Z,89.48
2023-04-16T08:22:19.304Z,89.00
2023-04-16T08:24:46.164Z,88.52
2023-04-16T08:27:19.337Z,88.52
2023-04-16T08:29:48.004Z,88.89
2023-04-16T08:32:14.651Z,87.66
2023-04-16T08:34:42.295Z,87.93
2023-04-16T08:37:09.638Z,87.92
2023-04-16T08:39:36.369Z,88.32
2023-04-16T08:48:12.460Z,85.81
2023-04-16T08:50:40.869Z,86.59
2023-04-16T08:56:09.848Z,86.38
2023-04-16T08:58:38.432Z,86.99
2023-04-16T09:01:06.412Z,86.25
2023-04-16T09:03:35.753Z,86.47
2023-04-16T09:06:04.643Z,87.37
2023-04-16T09:08:32.381Z,86.56
2023-04-16T09:11:36.469Z,85.63
2023-04-16T09:14:03.954Z,86.07
2023-04-16T09:16:34.200Z,85.09
2023-04-16T09:19:01.159Z,85.72
2023-04-16T09:21:28.049Z,85.93
2023-04-16T09:23:55.439Z,85.79
2023-04-16T09:26:22.714Z,85.53
2023-04-16T09:28:51.367Z,85.52
2023-04-16T09:31:24.543Z,84.61
2023-04-16T09:34:06.066Z,84.64
2023-04-16T09:36:33.689Z,85.25
2023-04-16T09:39:01.319Z,84.61
2023-04-16T09:41:33.010Z,85.21
2023-04-16T09:44:04.553Z,85.18
2023-04-16T09:46:36.243Z,85.23
2023-04-16T09:49:10.235Z,83.91
2023-04-16T09:51:49.741Z,83.78
2023-04-16T09:54:16.741Z,84.28
2023-04-16T09:56:47.090Z,84.52
2023-04-16T09:59:18.948Z,84.56
2023-04-16T10:01:47.460Z,83.87
2023-04-16T10:04:14.186Z,84.06
2023-04-16T10:06:41.104Z,84.07
2023-04-16T10:09:11.273Z,83.85
2023-04-16T10:11:38.395Z,84.23
2023-04-16T10:14:05.205Z,83.81
2023-04-16T10:16:33.035Z,83.84
2023-04-16T10:19:00.425Z,83.86
2023-04-16T10:21:34.036Z,83.97
2023-04-16T10:24:01.894Z,84.05
2023-04-16T10:26:30.138Z,83.18
2023-04-16T10:28:58.885Z,82.93
2023-04-16T10:31:27.350Z,83.46
2023-04-16T10:33:55.002Z,83.36
2023-04-16T10:36:26.702Z,83.96
2023-04-16T10:38:58.415Z,83.27
2023-04-16T10:41:26.910Z,83.64
2023-04-16T10:44:04.067Z,83.37
2023-04-16T10:46:33.757Z,83.08
2023-04-16T10:49:01.907Z,83.48
2023-04-16T10:51:33.188Z,82.53
2023-04-16T10:54:14.620Z,83.41
2023-04-16T10:56:41.336Z,83.19
2023-04-16T10:59:10.898Z,82.76
2023-04-16T11:01:42.838Z,82.50
2023-04-16T11:04:23.978Z,82.98
2023-04-16T11:07:14.971Z,82.42
2023-04-16T11:10:03.770Z,82.79
2023-04-16T11:12:35.908Z,82.49
2023-04-16T11:15:06.467Z,82.11
2023-04-16T11:17:38.927Z,82.51
2023-04-16T11:20:19.080Z,82.30
2023-04-16T11:22:54.099Z,81.85
2023-04-16T11:25:28.079Z,81.82
2023-04-16T11:27:55.050Z,81.53
2023-04-16T11:30:34.201Z,81.11
2023-04-16T11:33:11.937Z,81.54
2023-04-16T11:35:39.704Z,81.33
2023-04-16T11:38:07.709Z,80.99
2023-04-16T11:40:35.617Z,80.90
2023-04-16T11:43:16.240Z,81.00
2023-04-16T11:46:10.337Z,80.95
2023-04-16T11:48:52.698Z,81.50
2023-04-16T11:51:23.743Z,80.94
2023-04-16T11:53:53.238Z,81.45
2023-04-16T11:56:28.882Z,80.61
2023-04-16T11:59:17.126Z,80.71
2023-04-16T12:01:48.576Z,80.98
2023-04-16T12:04:16.755Z,81.11
2023-04-16T12:07:11.330Z,80.83
2023-04-16T12:09:40.745Z,80.97
2023-04-16T12:12:26.679Z,79.82
2023-04-16T12:14:54.697Z,80.54
2023-04-16T12:17:21.738Z,80.75
2023-04-16T12:19:51.093Z,80.28
2023-04-16T12:22:18.303Z,79.75
2023-04-16T12:24:44.917Z,80.03
2023-04-16T12:27:11.792Z,79.32
2023-04-16T12:29:38.779Z,79.36
2023-04-16T12:32:05.548Z,79.52
2023-04-16T12:34:49.045Z,79.69
2023-04-16T12:37:16.586Z,79.44
2023-04-16T12:39:43.221Z,79.26
2023-04-16T12:42:11.486Z,79.60
2023-04-16T12:44:38.468Z,79.43
2023-04-16T12:47:05.657Z,79.48
2023-04-16T12:49:32.419Z,79.80
2023-04-16T12:51:59.408Z,79.46
2023-04-16T12:54:29.178Z,79.30
2023-04-16T12:56:55.883Z,79.07
2023-04-16T12:59:22.672Z,79.06
2023-04-16T13:01:49.197Z,79.40
2023-04-16T13:04:17.974Z,79.16
2023-04-16T13:06:45.834Z,79.03
2023-04-16T13:09:12.562Z,79.04
2023-04-16T13:12:50.225Z,78.75
2023-04-16T13:15:18.969Z,78.30
2023-04-16T13:17:46.177Z,78.70
2023-04-16T13:20:12.970Z,78.95
2023-04-16T13:22:39.645Z,78.69
2023-04-16T13:25:06.886Z,78.38
2023-04-16T13:27:33.509Z,78.74
2023-04-16T13:30:00.188Z,78.98
2023-04-16T13:32:27.023Z,78.77
2023-04-16T13:34:53.904Z,79.12
2023-04-16T13:37:20.555Z,78.66
2023-04-16T13:39:47.637Z,78.39
2023-04-16T13:42:14.458Z,78.68
2023-04-16T13:44:41.354Z,78.37
2023-04-16T13:47:08.345Z,78.28
2023-04-16T13:49:36.150Z,78.13
2023-04-16T13:52:05.837Z,77.78
2023-04-16T13:54:32.580Z,78.21
2023-04-16T13:56:59.349Z,78.19
2023-04-16T13:59:26.645Z,78.22
2023-04-16T14:01:53.734Z,78.15
2023-04-16T14:04:22.362Z,78.38
2023-04-16T14:06:50.180Z,78.08
2023-04-16T14:09:16.750Z,77.82
2023-04-16T14:11:43.637Z,78.00
2023-04-16T14:14:10.367Z,78.14
2023-04-16T14:16:37.210Z,77.27
2023-04-16T14:19:03.998Z,77.21
2023-04-16T14:21:31.439Z,77.14
2023-04-16T14:23:57.992Z,77.45
2023-04-16T14:26:24.657Z,77.19
2023-04-16T14:28:51.373Z,77.53
2023-04-16T14:31:18.964Z,76.79
2023-04-16T14:33:46.131Z,77.54
2023-04-16T14:36:12.881Z,76.72
2023-04-16T14:38:40.466Z,77.08
2023-04-16T14:41:07.212Z,76.48
2023-04-16T14:43:34.330Z,75.52
2023-04-16T14:46:00.987Z,75.93
2023-04-16T14:48:27.815Z,76.46
2023-04-16T14:50:54.564Z,76.35
2023-04-16T14:53:24.263Z,76.08
2023-04-16T14:55:53.278Z,75.83
2023-04-16T14:58:19.820Z,76.34
2023-04-16T15:03:40.865Z,75.63
2023-04-16T15:06:08.766Z,76.04
2023-04-16T15:08:35.492Z,75.28
2023-04-16T15:11:02.096Z,75.65
2023-04-16T15:13:33.824Z,75.25
2023-04-16T15:16:01.480Z,75.19
2023-04-16T15:18:29.250Z,75.69
2023-04-16T15:20:56.188Z,75.31
2023-04-16T15:23:23.221Z,75.16
2023-04-16T15:25:57.491Z,75.14
2023-04-16T15:28:24.114Z,74.50
2023-04-16T15:33:47.457Z,74.18
2023-04-16T15:36:14.697Z,74.19
2023-04-16T15:38:41.905Z,74.75
2023-04-16T15:44:04.094Z,75.00
2023-04-16T15:46:30.930Z,74.48
2023-04-16T15:48:57.906Z,74.81
2023-04-16T15:54:19.261Z,75.06
2023-04-16T15:56:46.988Z,74.51
2023-04-16T15:59:13.844Z,74.53
2023-04-16T16:07:29.039Z,74.42
2023-04-16T16:09:58.499Z,74.26
2023-04-16T16:12:25.130Z,74.97
2023-04-16T16:14:51.991Z,74.42
2023-04-16T16:17:20.379Z,74.63
2023-04-16T16:19:47.186Z,74.57
2023-04-16T16:22:14.196Z,74.84
2023-04-16T16:24:40.802Z,74.94
2023-04-16T16:27:07.524Z,75.04
2023-04-16T16:29:34.213Z,74.92
2023-04-16T16:32:01.256Z,74.49
2023-04-16T16:34:28.335Z,75.18
2023-04-16T16:36:55.129Z,75.10
2023-04-16T16:39:24.429Z,75.21
2023-04-16T16:41:57.846Z,75.53
2023-04-16T16:44:24.528Z,76.28
2023-04-16T16:46:51.683Z,75.51
2023-04-16T16:49:18.578Z,75.81
2023-04-16T16:51:46.648Z,76.00
2023-04-16T16:54:13.489Z,76.11
2023-04-16T16:56:41.484Z,76.03
2023-04-16T16:59:09.228Z,76.30
2023-04-16T17:01:36.184Z,76.23
2023-04-16T17:04:02.908Z,76.58
2023-04-16T17:06:29.785Z,76.94
2023-04-16T17:08:56.450Z,76.84
2023-04-16T17:11:22.998Z,76.56
2023-04-16T17:13:49.636Z,77.00
2023-04-16T17:16:17.675Z,77.00
2023-04-16T17:18:45.927Z,77.05
2023-04-16T17:21:14.029Z,77.37
2023-04-16T17:23:41.770Z,77.34
2023-04-16T17:26:08.331Z,77.22
2023-04-16T17:28:35.127Z,77.77
2023-04-16T17:31:02.928Z,78.08
2023-04-16T17:33:29.718Z,78.06
2023-04-16T17:35:56.548Z,78.40
2023-04-16T17:38:23.127Z,77.70
2023-04-16T17:40:49.912Z,77.91
2023-04-16T17:43:16.675Z,78.15
2023-04-16T17:45:43.591Z,78.88
2023-04-16T17:48:10.518Z,78.64
2023-04-16T17:50:39.356Z,78.61
2023-04-16T17:53:06.430Z,78.12
2023-04-16T17:55:33.019Z,78.30
2023-04-16T17:58:07.362Z,78.40
2023-04-16T18:00:34.040Z,78.40
2023-04-16T18:03:00.835Z,78.31
2023-04-16T18:05:27.696Z,78.99
2023-04-16T18:07:55.527Z,79.02
2023-04-16T18:10:22.385Z,78.34
2023-04-16T18:12:49.112Z,78.48
2023-04-16T18:15:15.768Z,78.91
2023-04-16T18:17:42.851Z,79.02
2023-04-16T18:20:11.750Z,79.26
2023-04-16T18:22:38.385Z,79.85
2023-04-16T18:25:05.385Z,79.84
2023-04-16T18:27:32.377Z,78.86
2023-04-16T18:29:59.462Z,79.32
2023-04-16T18:32:30.857Z,79.76
2023-04-16T18:34:58.098Z,79.43
2023-04-16T18:37:24.665Z,79.47
2023-04-16T18:39:51.242Z,79.00
2023-04-16T18:42:17.777Z,79.35
2023-04-16T18:44:47.912Z,79.85
2023-04-16T18:47:14.442Z,79.62
2023-04-16T18:49:41.296Z,80.06
2023-04-16T18:52:08.126Z,80.39
2023-04-16T18:57:29.080Z,80.59
2023-04-16T18:59:55.965Z,80.58
2023-04-16T19:02:22.717Z,80.67
2023-04-16T19:04:49.386Z,80.53
2023-04-16T19:07:16.331Z,80.34
2023-04-16T19:09:43.053Z,80.81
2023-04-16T19:12:12.866Z,81.30
2023-04-16T19:14:39.748Z,80.74
2023-04-16T19:17:06.702Z,80.49
2023-04-16T19:19:33.408Z,81.28
2023-04-16T19:22:00.649Z,81.13
2023-04-16T19:24:27.541Z,81.13
2023-04-16T19:26:54.577Z,81.29
2023-04-16T19:29:21.248Z,81.19
2023-04-16T19:31:47.915Z,81.38
2023-04-16T19:34:15.793Z,81.83
2023-04-16T19:36:42.641Z,80.77
2023-04-16T19:39:09.798Z,80.74
2023-04-16T19:41:37.035Z,81.72
2023-04-16T19:44:03.883Z,81.11
2023-04-16T19:46:30.478Z,81.43
2023-04-16T19:48:57.254Z,81.16
2023-04-16T19:51:26.441Z,81.52
2023-04-16T19:53:53.507Z,81.32
2023-04-16T19:56:20.289Z,81.30
2023-04-16T19:58:47.076Z,82.28
2023-04-16T20:01:13.901Z,81.79
2023-04-16T20:03:40.534Z,81.70
2023-04-16T20:06:08.004Z,82.02
2023-04-16T20:08:34.746Z,81.32
2023-04-16T20:11:01.658Z,81.14
2023-04-16T20:13:28.617Z,82.76
2023-04-16T20:15:55.232Z,81.70
2023-04-16T20:18:22.376Z,81.55
2023-04-16T20:20:49.152Z,80.82
2023-04-16T20:23:15.665Z,81.05
2023-04-16T20:25:43.104Z,81.54
2023-04-16T20:28:10.359Z,82.49
2023-04-16T20:30:39.413Z,81.96
2023-04-16T20:33:06.820Z,83.00
2023-04-16T20:35:34.394Z,82.42
2023-04-16T20:38:01.353Z,82.68
2023-04-16T20:40:30.727Z,83.92
2023-04-16T20:43:00.215Z,84.53
2023-04-16T20:45:32.335Z,82.89
2023-04-16T20:47:59.955Z,85.06
2023-04-16T20:50:26.701Z,85.80
2023-04-16T20:52:53.308Z,84.87
2023-04-16T20:55:20.160Z,83.19
2023-04-16T20:57:47.059Z,83.52
2023-04-16T21:00:15.599Z,84.36
2023-04-16T21:02:43.128Z,82.67
2023-04-16T21:05:13.867Z,82.96
2023-04-16T21:07:41.638Z,84.00
2023-04-16T21:10:09.907Z,82.77
2023-04-16T21:12:37.476Z,84.91
2023-04-16T21:15:04.967Z,84.36
2023-04-16T21:17:31.875Z,85.01
2023-04-16T21:19:58.710Z,83.70
2023-04-16T21:22:25.728Z,85.25
2023-04-16T21:24:52.324Z,85.46
2023-04-16T21:27:18.909Z,84.37
2023-04-16T21:29:45.595Z,84.24
2023-04-16T21:32:12.257Z,84.22
2023-04-16T21:34:38.894Z,83.56
2023-04-16T21:37:05.472Z,87.13
2023-04-16T21:39:32.106Z,85.91
2023-04-16T21:41:58.794Z,85.92
2023-04-16T21:44:25.415Z,87.27
2023-04-16T21:46:52.093Z,85.62
2023-04-16T21:49:18.838Z,85.22
2023-04-16T21:51:46.347Z,85.63
2023-04-16T21:54:13.311Z,84.94
2023-04-16T21:56:39.937Z,85.10
2023-04-16T21:59:06.648Z,85.04
2023-04-16T22:01:33.514Z,84.95
2023-04-16T22:04:03.144Z,85.33
2023-04-16T22:06:29.761Z,86.07
2023-04-16T22:08:58.846Z,85.20
2023-04-16T22:11:25.446Z,85.48
2023-04-16T22:13:52.137Z,86.00
2023-04-16T22:16:18.665Z,87.23
2023-04-16T22:18:46.436Z,86.49
2023-04-16T22:21:13.098Z,86.94
2023-04-16T22:23:39.745Z,86.58
2023-04-16T22:26:06.367Z,86.29
2023-04-16T22:28:33.032Z,86.56
2023-04-16T22:30:59.797Z,87.62
2023-04-16T22:33:29.737Z,87.11
2023-04-16T22:35:56.457Z,87.79
2023-04-16T22:38:23.138Z,87.26
2023-04-16T22:40:49.849Z,86.99
2023-04-16T22:43:17.651Z,87.76
2023-04-16T22:48:40.226Z,87.86
2023-04-16T22:54:02.566Z,87.57
2023-04-16T22:56:31.168Z,87.50
2023-04-16T22:58:57.785Z,87.32
2023-04-16T23:04:18.810Z,86.70
2023-04-16T23:06:46.387Z,86.37
2023-04-16T23:09:13.542Z,86.46
2023-04-16T23:11:40.582Z,86.25
2023-04-16T23:14:08.360Z,85.56
2023-04-16T23:16:35.046Z,86.58
2023-04-16T23:19:01.588Z,87.14
2023-04-16T23:21:28.199Z,87.02
2023-04-16T23:23:55.802Z,86.79
2023-04-16T23:26:22.462Z,87.41
2023-04-16T23:28:48.975Z,87.79
2023-04-16T23:31:15.602Z,87.97
2023-04-16T23:33:42.365Z,87.06
2023-04-16T23:36:09.398Z,88.22
2023-04-16T23:38:35.882Z,87.87
2023-04-16T23:41:02.528Z,87.23
2023-04-16T23:43:29.086Z,86.49
2023-04-16T23:45:58.432Z,87.28
2023-04-16T23:48:25.257Z,87.08
2023-04-16T23:50:51.899Z,87.97
2023-04-16T23:53:18.853Z,87.39
2023-04-16T23:55:45.450Z,87.24
2023-04-16T23:58:12.038Z,87.55
